Time;durP1;ratioP1;P1;durP2;ratioP2;P2;SDS_P1;SDS_P2;PMS_P1;PMS_P2;Temp;Humidity;BMP_temperature;BMP_pressure;BME280_temperature;BME280_humidity;BME280_pressure;Samples;Min_cycle;Max_cycle;Signal;HPM_P1;HPM_P2
2023/05/29 00:00:29;;;;;;;8.00;3.93;;;16.60;99.90;;;;;;5113507;28;20432;-82
2023/05/29 00:02:54;;;;;;;6.20;3.43;;;16.60;99.90;;;;;;5119364;28;20457;-82
2023/05/29 00:05:20;;;;;;;6.63;3.83;;;16.60;99.90;;;;;;5105597;28;20565;-82
2023/05/29 00:07:46;;;;;;;6.37;3.20;;;16.50;99.90;;;;;;5103123;28;20325;-82
2023/05/29 00:10:12;;;;;;;8.10;3.37;;;16.50;99.90;;;;;;5105069;28;20172;-81
2023/05/29 00:12:38;;;;;;;7.50;3.60;;;16.50;99.90;;;;;;5108278;28;20528;-83
2023/05/29 00:15:08;;;;;;;9.37;3.10;;;16.40;99.90;;;;;;5105715;28;21028;-82
2023/05/29 00:17:33;;;;;;;9.17;3.63;;;16.40;99.90;;;;;;5104769;28;20507;-82
2023/05/29 00:20:01;;;;;;;7.73;3.90;;;16.30;99.90;;;;;;5105515;28;20449;-81
2023/05/29 00:22:27;;;;;;;6.23;3.03;;;16.30;99.90;;;;;;5106723;28;20195;-83
2023/05/29 00:24:52;;;;;;;4.50;3.47;;;16.30;99.90;;;;;;5113050;28;20510;-84
2023/05/29 00:27:18;;;;;;;5.87;3.83;;;16.20;99.90;;;;;;5103258;28;20452;-83
2023/05/29 00:29:43;;;;;;;6.47;3.63;;;16.20;99.90;;;;;;5115326;28;20183;-79
2023/05/29 00:32:09;;;;;;;6.97;3.93;;;16.10;99.90;;;;;;5114822;28;20189;-82
2023/05/29 00:34:35;;;;;;;7.53;3.97;;;16.10;99.90;;;;;;5112382;28;20186;-83
2023/05/29 00:37:01;;;;;;;5.00;3.70;;;16.00;99.90;;;;;;5113678;27;20456;-80
2023/05/29 00:39:27;;;;;;;7.13;3.63;;;16.00;99.90;;;;;;5118975;28;20186;-82
2023/05/29 00:41:52;;;;;;;6.10;4.10;;;15.90;99.90;;;;;;5105371;28;20519;-79
2023/05/29 00:44:18;;;;;;;14.13;4.00;;;15.80;99.90;;;;;;5114955;28;20190;-83
2023/05/29 00:46:46;;;;;;;8.27;4.13;;;15.80;99.90;;;;;;5108387;28;20633;-83
2023/05/29 00:49:12;;;;;;;5.07;3.73;;;15.70;99.90;;;;;;5110176;28;20464;-82
2023/05/29 00:51:38;;;;;;;8.07;4.53;;;15.70;99.90;;;;;;5111299;28;20447;-84
2023/05/29 00:54:07;;;;;;;8.23;4.00;;;15.70;99.90;;;;;;5104927;28;20430;-82
2023/05/29 00:56:35;;;;;;;6.03;3.90;;;15.60;99.90;;;;;;5113058;28;20509;-83
2023/05/29 00:59:00;;;;;;;11.53;3.50;;;15.60;99.90;;;;;;5113091;28;20447;-83
2023/05/29 01:01:26;;;;;;;7.17;4.60;;;15.50;99.90;;;;;;5111229;28;20793;-82
2023/05/29 01:03:57;;;;;;;6.17;3.97;;;15.50;99.90;;;;;;5110079;28;20179;-82
2023/05/29 01:06:23;;;;;;;7.53;3.93;;;15.50;99.90;;;;;;5107331;28;20462;-82
2023/05/29 01:08:49;;;;;;;9.57;4.43;;;15.40;99.90;;;;;;5106797;28;20467;-79
2023/05/29 01:11:33;;;;;;;9.40;4.17;;;15.40;99.90;;;;;;5108307;28;20424;-78
2023/05/29 01:14:05;;;;;;;5.93;3.93;;;15.40;99.90;;;;;;5110140;28;20188;-82
2023/05/29 01:16:37;;;;;;;7.20;4.57;;;15.40;99.90;;;;;;5103573;28;20892;-82
2023/05/29 01:19:40;;;;;;;8.40;5.00;;;15.40;99.90;;;;;;5101242;28;20445;-81
2023/05/29 01:22:24;;;;;;;4.93;3.70;;;15.30;99.90;;;;;;5113365;28;20408;-82
2023/05/29 01:24:58;;;;;;;6.77;3.87;;;15.30;99.90;;;;;;5118229;28;20441;-81
2023/05/29 01:27:25;;;;;;;4.70;3.40;;;15.30;99.90;;;;;;5107147;28;20771;-80
2023/05/29 01:29:53;;;;;;;8.27;4.30;;;15.30;99.90;;;;;;5111781;28;20459;-80
2023/05/29 01:32:19;;;;;;;6.70;4.50;;;15.20;99.90;;;;;;5114152;28;20422;-83
2023/05/29 01:34:45;;;;;;;6.67;4.93;;;15.20;99.90;;;;;;5108374;28;20442;-82
2023/05/29 01:37:10;;;;;;;8.90;4.60;;;15.10;99.90;;;;;;5120578;28;20265;-83
2023/05/29 01:39:36;;;;;;;6.50;4.10;;;15.10;99.90;;;;;;5113815;28;20468;-82
2023/05/29 01:42:03;;;;;;;7.57;4.30;;;15.10;99.90;;;;;;5109338;28;20636;-80
2023/05/29 01:44:29;;;;;;;7.47;4.20;;;15.10;99.90;;;;;;5099643;28;20440;-82
2023/05/29 01:46:55;;;;;;;8.70;4.70;;;15.00;99.90;;;;;;5110420;28;20443;-83
2023/05/29 01:49:23;;;;;;;7.20;4.47;;;15.00;99.90;;;;;;5100453;28;20585;-82
2023/05/29 01:51:49;;;;;;;7.20;4.43;;;15.00;99.90;;;;;;5106306;28;20488;-80
2023/05/29 01:54:15;;;;;;;7.60;4.87;;;14.90;99.90;;;;;;5103938;28;20434;-82
2023/05/29 01:56:41;;;;;;;6.63;4.20;;;14.90;99.90;;;;;;5113980;28;20200;-82
2023/05/29 01:59:08;;;;;;;7.60;5.13;;;14.80;99.90;;;;;;5102954;28;20431;-82
2023/05/29 02:01:34;;;;;;;8.93;5.30;;;14.80;99.90;;;;;;5113607;28;20431;-82
2023/05/29 02:03:59;;;;;;;7.50;4.60;;;14.70;99.90;;;;;;5103207;28;20462;-83
2023/05/29 02:06:25;;;;;;;7.57;4.60;;;14.70;99.90;;;;;;5109715;28;20207;-81
2023/05/29 02:08:50;;;;;;;8.17;4.23;;;14.60;99.90;;;;;;5117182;28;20232;-83
2023/05/29 02:11:16;;;;;;;7.60;4.77;;;14.50;99.90;;;;;;5107879;28;20222;-83
2023/05/29 02:13:42;;;;;;;10.50;4.77;;;14.50;99.90;;;;;;5105344;28;20199;-81
2023/05/29 02:16:07;;;;;;;10.70;5.20;;;14.40;99.90;;;;;;5110904;28;20204;-80
2023/05/29 02:18:34;;;;;;;11.00;5.33;;;14.40;99.90;;;;;;5100535;28;20916;-79
2023/05/29 02:21:00;;;;;;;9.73;5.07;;;14.30;99.90;;;;;;5108484;28;20661;-80
2023/05/29 02:23:25;;;;;;;9.00;5.40;;;14.30;99.90;;;;;;5104374;28;20414;-82
2023/05/29 02:25:51;;;;;;;9.87;4.80;;;14.30;99.90;;;;;;5102650;28;20200;-82
2023/05/29 02:28:16;;;;;;;12.60;6.00;;;14.30;99.90;;;;;;5112118;28;20259;-81
2023/05/29 02:30:42;;;;;;;9.80;4.70;;;14.20;1.00;;;;;;5118038;28;21602;-82
2023/05/29 02:33:08;;;;;;;7.57;4.10;;;14.10;1.00;;;;;;5119592;28;20183;-82
2023/05/29 02:35:34;;;;;;;7.23;4.30;;;14.10;1.00;;;;;;5119842;28;20578;-81
2023/05/29 02:37:59;;;;;;;11.97;4.27;;;14.00;1.00;;;;;;5120849;28;20498;-82
2023/05/29 02:40:25;;;;;;;8.83;4.60;;;14.00;1.00;;;;;;5120458;28;20189;-81
2023/05/29 02:42:53;;;;;;;7.53;4.70;;;13.90;1.00;;;;;;5102998;28;20177;-80
2023/05/29 02:45:19;;;;;;;8.80;5.20;;;13.90;1.00;;;;;;5108838;28;20200;-82
2023/05/29 02:47:44;;;;;;;9.03;4.23;;;13.90;1.00;;;;;;5100589;28;20496;-82
2023/05/29 02:50:10;;;;;;;10.10;4.53;;;13.80;1.00;;;;;;5110819;28;20267;-83
2023/05/29 02:52:39;;;;;;;11.00;4.20;;;13.80;1.00;;;;;;5100511;28;20180;-79
2023/05/29 02:55:05;;;;;;;8.57;3.20;;;13.70;1.00;;;;;;5100991;28;20529;-82
2023/05/29 02:57:32;;;;;;;10.03;3.47;;;13.70;1.00;;;;;;5106099;28;20459;-80
2023/05/29 02:59:57;;;;;;;8.97;3.93;;;13.70;1.00;;;;;;5105440;28;20456;-82
2023/05/29 03:02:23;;;;;;;8.60;4.17;;;13.60;1.00;;;;;;5113384;28;21002;-81
2023/05/29 03:04:52;;;;;;;6.87;4.20;;;13.60;1.00;;;;;;5112175;28;20183;-79
2023/05/29 03:07:18;;;;;;;10.90;4.40;;;13.60;1.00;;;;;;5120007;28;20200;-82
2023/05/29 03:09:43;;;;;;;15.47;3.73;;;13.50;1.00;;;;;;5115675;28;20425;-82
2023/05/29 03:12:09;;;;;;;8.60;4.23;;;13.50;1.00;;;;;;5107799;28;20440;-81
2023/05/29 03:14:35;;;;;;;13.70;5.27;;;13.40;1.00;;;;;;5109710;28;20903;-80
2023/05/29 03:17:06;;;;;;;11.77;4.20;;;13.40;1.00;;;;;;5108320;28;20220;-80
2023/05/29 03:19:32;;;;;;;14.20;4.00;;;13.30;1.00;;;;;;5099183;28;20454;-82
2023/05/29 03:21:57;;;;;;;9.10;4.97;;;13.30;1.00;;;;;;5103466;28;20442;-80
2023/05/29 03:24:27;;;;;;;11.20;4.50;;;13.30;1.00;;;;;;5106807;28;20233;-79
2023/05/29 03:26:52;;;;;;;10.33;4.30;;;13.20;1.00;;;;;;5108099;28;20289;-80
2023/05/29 03:29:18;;;;;;;14.27;4.50;;;13.20;1.00;;;;;;5105908;28;20442;-80
2023/05/29 03:31:44;;;;;;;9.57;4.50;;;13.10;1.00;;;;;;5107306;28;20207;-79
2023/05/29 03:34:09;;;;;;;10.27;4.50;;;13.10;1.00;;;;;;5110977;28;20183;-79
2023/05/29 03:36:36;;;;;;;17.20;4.57;;;13.10;1.00;;;;;;5110191;28;20200;-80
2023/05/29 03:39:02;;;;;;;9.70;3.00;;;13.10;1.00;;;;;;5116433;28;20203;-82
2023/05/29 03:41:28;;;;;;;11.97;4.27;;;13.10;1.00;;;;;;5101825;28;20438;-82
2023/05/29 03:43:53;;;;;;;9.70;4.27;;;13.10;1.00;;;;;;5117512;28;20420;-81
2023/05/29 03:46:19;;;;;;;9.27;4.50;;;13.10;1.00;;;;;;5110953;28;20278;-81
2023/05/29 03:48:44;;;;;;;16.33;4.10;;;13.10;1.00;;;;;;5116953;28;20188;-82
2023/05/29 03:51:10;;;;;;;12.57;3.33;;;13.10;1.00;;;;;;5113326;28;20194;-80
2023/05/29 03:53:35;;;;;;;12.30;3.80;;;13.20;99.90;;;;;;5099811;28;20195;-80
2023/05/29 03:56:01;;;;;;;10.40;3.60;;;13.20;99.90;;;;;;5107196;28;20310;-79
2023/05/29 03:58:27;;;;;;;8.03;3.80;;;13.20;99.90;;;;;;5118881;28;20215;-79
2023/05/29 04:00:52;;;;;;;8.73;3.43;;;13.20;99.90;;;;;;5101351;28;20581;-81
2023/05/29 04:03:18;;;;;;;14.90;4.30;;;13.20;99.90;;;;;;5100248;28;20196;-81
2023/05/29 04:05:43;;;;;;;8.37;3.10;;;13.20;99.90;;;;;;5104100;28;20792;-79
2023/05/29 04:08:10;;;;;;;9.80;3.53;;;13.20;99.90;;;;;;5115965;28;20680;-79
2023/05/29 04:10:36;;;;;;;10.47;3.10;;;13.20;99.90;;;;;;5119099;28;20266;-81
2023/05/29 04:13:02;;;;;;;10.17;3.50;;;13.30;99.90;;;;;;5116820;28;20429;-81
2023/05/29 04:15:30;;;;;;;14.80;4.00;;;13.30;99.90;;;;;;5111624;28;20465;-81
2023/05/29 04:17:55;;;;;;;9.67;3.73;;;13.30;99.90;;;;;;5111069;28;20263;-81
2023/05/29 04:20:21;;;;;;;7.97;3.70;;;13.30;99.90;;;;;;5100508;28;20509;-82
2023/05/29 04:22:46;;;;;;;8.30;2.97;;;13.40;99.90;;;;;;5112747;28;20194;-81
2023/05/29 04:25:12;;;;;;;12.10;3.50;;;13.40;99.90;;;;;;5104342;28;20211;-82
2023/05/29 04:27:38;;;;;;;13.67;3.60;;;13.50;99.90;;;;;;5116132;28;20220;-80
2023/05/29 04:30:07;;;;;;;9.57;3.73;;;13.50;99.90;;;;;;5102344;28;20297;-82
2023/05/29 04:32:35;;;;;;;9.80;3.90;;;13.60;99.90;;;;;;5115406;28;20619;-81
2023/05/29 04:35:02;;;;;;;11.30;3.70;;;13.80;99.90;;;;;;5114572;28;20520;-79
2023/05/29 04:37:37;;;;;;;9.00;3.53;;;13.80;99.90;;;;;;5107218;28;20450;-82
2023/05/29 04:40:08;;;;;;;10.20;3.73;;;13.90;99.90;;;;;;5105349;28;20433;-81
2023/05/29 04:42:35;;;;;;;11.13;4.43;;;14.00;99.90;;;;;;5107243;28;20451;-81
2023/05/29 04:45:01;;;;;;;14.67;5.10;;;14.00;99.90;;;;;;5116695;28;20441;-81
2023/05/29 04:47:27;;;;;;;8.00;3.03;;;14.10;99.90;;;;;;5107136;28;20512;-80
2023/05/29 04:49:54;;;;;;;9.60;3.37;;;14.20;99.90;;;;;;5110918;28;20194;-82
2023/05/29 04:52:21;;;;;;;16.40;4.00;;;14.20;99.90;;;;;;5103734;28;20457;-81
2023/05/29 04:54:46;;;;;;;9.40;3.50;;;14.30;99.90;;;;;;5107035;28;20429;-81
2023/05/29 04:57:12;;;;;;;13.33;3.93;;;14.40;99.90;;;;;;5119328;28;20481;-80
2023/05/29 04:59:37;;;;;;;12.63;3.70;;;14.50;99.90;;;;;;5102159;28;20687;-80
2023/05/29 05:02:03;;;;;;;9.27;4.43;;;14.60;99.90;;;;;;5111861;28;20240;-80
2023/05/29 05:04:28;;;;;;;7.37;3.00;;;14.70;99.90;;;;;;5114341;28;20249;-81
2023/05/29 05:06:54;;;;;;;13.13;4.00;;;14.80;99.90;;;;;;5106289;28;20712;-82
2023/05/29 05:09:19;;;;;;;14.03;3.80;;;14.90;99.90;;;;;;5121696;28;20178;-83
2023/05/29 05:11:45;;;;;;;12.90;3.60;;;15.00;99.90;;;;;;5105698;28;20193;-82
2023/05/29 05:14:10;;;;;;;9.03;4.10;;;15.20;99.90;;;;;;5100782;28;20203;-82
2023/05/29 05:16:36;;;;;;;16.83;3.60;;;15.30;99.90;;;;;;5110827;28;20223;-83
2023/05/29 05:19:01;;;;;;;9.63;3.57;;;15.40;99.90;;;;;;5122745;28;20221;-82
2023/05/29 05:21:30;;;;;;;21.83;3.70;;;15.40;99.90;;;;;;5122949;28;20190;-83
2023/05/29 05:23:56;;;;;;;13.87;4.80;;;15.50;99.90;;;;;;5111476;28;20176;-78
2023/05/29 05:26:22;;;;;;;13.70;4.47;;;15.60;99.90;;;;;;5110116;28;20484;-81
2023/05/29 05:28:47;;;;;;;12.53;4.00;;;15.70;99.90;;;;;;5117657;28;20200;-82
2023/05/29 05:31:13;;;;;;;7.63;3.40;;;15.80;99.90;;;;;;5104531;28;20187;-82
2023/05/29 05:33:38;;;;;;;10.50;3.40;;;15.90;99.90;;;;;;5110063;28;20209;-79
2023/05/29 05:36:04;;;;;;;10.80;3.70;;;15.90;99.90;;;;;;5105101;28;20636;-80
2023/05/29 05:38:29;;;;;;;11.57;3.33;;;15.90;99.90;;;;;;5106006;28;20214;-81
2023/05/29 05:40:55;;;;;;;9.20;3.10;;;16.00;99.90;;;;;;5122453;28;20182;-80
2023/05/29 05:43:22;;;;;;;11.17;3.30;;;16.00;99.90;;;;;;5121794;28;20175;-82
2023/05/29 05:45:47;;;;;;;12.33;4.47;;;16.10;99.90;;;;;;5115721;28;20202;-81
2023/05/29 05:48:13;;;;;;;10.07;3.80;;;16.20;99.90;;;;;;5102099;28;20504;-81
2023/05/29 05:50:38;;;;;;;9.50;3.83;;;16.20;99.90;;;;;;5116443;28;20286;-82
2023/05/29 05:53:04;;;;;;;13.50;3.57;;;16.30;99.90;;;;;;5110443;28;20186;-81
2023/05/29 05:55:29;;;;;;;8.20;3.40;;;16.60;99.90;;;;;;5101883;28;20738;-80
2023/05/29 05:57:56;;;;;;;10.30;3.40;;;16.90;99.90;;;;;;5110113;28;20213;-80
2023/05/29 06:00:23;;;;;;;13.10;3.83;;;17.50;99.90;;;;;;5117287;28;20173;-80
2023/05/29 06:02:48;;;;;;;7.70;3.10;;;18.70;99.90;;;;;;5111623;28;20469;-81
2023/05/29 06:05:14;;;;;;;12.40;3.63;;;21.40;99.90;;;;;;5102605;28;20480;-80
2023/05/29 06:07:40;;;;;;;14.63;3.47;;;24.80;99.90;;;;;;5110402;28;20674;-82
2023/05/29 06:10:06;;;;;;;8.90;3.47;;;27.60;99.90;;;;;;5107325;28;20199;-84
2023/05/29 06:12:31;;;;;;;15.23;4.40;;;30.00;99.90;;;;;;5099090;28;20414;-84
2023/05/29 06:14:57;;;;;;;12.27;3.80;;;32.00;99.90;;;;;;5103421;28;20509;-81
2023/05/29 06:17:23;;;;;;;13.33;3.63;;;33.80;99.90;;;;;;5106513;28;20263;-82
2023/05/29 06:19:49;;;;;;;9.63;2.97;;;34.90;99.90;;;;;;5113923;28;20541;-83
2023/05/29 06:22:15;;;;;;;8.30;4.27;;;35.90;99.90;;;;;;5105839;28;20498;-83
2023/05/29 06:24:40;;;;;;;9.33;4.00;;;36.90;99.90;;;;;;5119680;28;20266;-83
2023/05/29 06:27:06;;;;;;;10.87;3.77;;;37.10;99.90;;;;;;5117288;28;20441;-82
2023/05/29 06:29:32;;;;;;;6.97;3.30;;;37.80;96.70;;;;;;5101820;28;20203;-82
2023/05/29 06:31:58;;;;;;;13.93;4.07;;;38.40;92.00;;;;;;5117237;28;20191;-82
2023/05/29 06:34:23;;;;;;;10.07;3.93;;;38.70;84.50;;;;;;5119157;28;20413;-83
2023/05/29 06:36:49;;;;;;;7.83;3.20;;;38.90;75.80;;;;;;5115280;28;20211;-82
2023/05/29 06:39:15;;;;;;;16.90;4.00;;;39.40;69.40;;;;;;5102402;28;20730;-83
2023/05/29 06:41:41;;;;;;;9.70;3.53;;;39.90;63.50;;;;;;5107633;28;20675;-83
2023/05/29 06:44:06;;;;;;;10.23;3.50;;;41.00;58.50;;;;;;5093739;28;20218;-82
2023/05/29 06:46:32;;;;;;;9.20;3.53;;;42.10;54.60;;;;;;5098436;28;20283;-82
2023/05/29 06:48:57;;;;;;;9.67;4.00;;;43.30;52.20;;;;;;5108068;27;20211;-83
2023/05/29 06:51:23;;;;;;;12.20;3.73;;;44.50;48.20;;;;;;5101451;28;20188;-84
2023/05/29 06:53:48;;;;;;;11.50;3.13;;;45.10;43.10;;;;;;5100531;28;20196;-82
2023/05/29 06:56:14;;;;;;;8.20;3.10;;;45.60;40.20;;;;;;5099014;28;20242;-83
2023/05/29 06:58:40;;;;;;;8.87;3.60;;;46.10;36.50;;;;;;5107839;28;20258;-83
2023/05/29 07:01:05;;;;;;;13.90;3.73;;;47.20;33.90;;;;;;5097142;28;20195;-84
2023/05/29 07:03:31;;;;;;;11.00;3.83;;;48.00;32.40;;;;;;5100828;28;20682;-84
2023/05/29 07:05:57;;;;;;;8.73;3.30;;;48.50;29.20;;;;;;5101568;28;20258;-83
2023/05/29 07:08:27;;;;;;;8.70;3.53;;;48.40;26.50;;;;;;5100655;28;20253;-84
2023/05/29 07:10:52;;;;;;;7.90;4.13;;;48.10;23.40;;;;;;5107235;28;20178;-85
2023/05/29 07:13:18;;;;;;;7.57;2.87;;;48.90;22.40;;;;;;5098777;28;20452;-82
2023/05/29 07:15:48;;;;;;;9.50;3.50;;;49.50;20.90;;;;;;5105789;28;20199;-81
2023/05/29 07:18:14;;;;;;;8.03;3.03;;;49.80;18.80;;;;;;5106378;28;20240;-82
2023/05/29 07:20:40;;;;;;;7.53;3.17;;;50.20;17.80;;;;;;5102083;28;20421;-81
2023/05/29 07:23:05;;;;;;;7.50;3.27;;;50.90;16.40;;;;;;5098623;28;20175;-82
2023/05/29 07:25:32;;;;;;;11.70;4.30;;;51.50;16.00;;;;;;5112260;28;20199;-83
2023/05/29 07:27:57;;;;;;;10.50;3.77;;;51.70;15.00;;;;;;5107406;28;20175;-81
2023/05/29 07:30:23;;;;;;;7.70;3.00;;;51.70;12.70;;;;;;5105323;28;20239;-82
2023/05/29 07:32:49;;;;;;;6.20;3.20;;;51.90;12.20;;;;;;5107455;28;20191;-82
2023/05/29 07:35:15;;;;;;;10.07;4.00;;;51.80;10.40;;;;;;5109007;28;20304;-81
2023/05/29 07:37:40;;;;;;;10.30;4.90;;;51.90;9.80;;;;;;5110098;28;20187;-83
2023/05/29 07:40:07;;;;;;;9.37;3.63;;;51.80;9.20;;;;;;5109156;28;20207;-83
2023/05/29 07:42:33;;;;;;;10.63;4.53;;;52.20;8.80;;;;;;5108795;28;20215;-85
2023/05/29 07:44:59;;;;;;;9.57;4.40;;;52.70;8.70;;;;;;5102382;28;20184;-84
2023/05/29 07:47:25;;;;;;;7.33;3.50;;;52.90;7.70;;;;;;5112876;28;20243;-83
2023/05/29 07:49:51;;;;;;;8.40;3.77;;;52.90;6.60;;;;;;5106565;28;20207;-84
2023/05/29 07:52:17;;;;;;;8.23;3.47;;;52.90;5.60;;;;;;5104064;28;20172;-84
2023/05/29 07:54:43;;;;;;;7.70;3.43;;;52.70;4.90;;;;;;5100050;28;20176;-83
2023/05/29 07:57:09;;;;;;;8.53;3.93;;;52.50;3.70;;;;;;5104028;28;20234;-82
2023/05/29 07:59:36;;;;;;;8.70;3.80;;;52.70;3.80;;;;;;5104189;28;20210;-84
2023/05/29 08:02:03;;;;;;;7.70;3.33;;;52.80;2.60;;;;;;5110347;28;20179;-85
2023/05/29 08:04:28;;;;;;;8.10;3.80;;;52.70;2.00;;;;;;5113566;28;20711;-81
2023/05/29 08:06:54;;;;;;;8.47;3.43;;;52.40;1.50;;;;;;5108925;28;20206;-81
2023/05/29 08:09:20;;;;;;;11.27;4.97;;;52.40;1.20;;;;;;5124374;28;20175;-84
2023/05/29 08:11:46;;;;;;;15.17;5.03;;;52.30;1.00;;;;;;5108949;28;20680;-84
2023/05/29 08:14:12;;;;;;;10.57;4.93;;;52.40;1.00;;;;;;5106952;28;20184;-84
2023/05/29 08:16:37;;;;;;;11.70;5.40;;;52.20;1.00;;;;;;5105339;28;20254;-83
2023/05/29 08:19:03;;;;;;;8.60;4.77;;;52.00;1.00;;;;;;5102617;28;20215;-82
2023/05/29 08:21:31;;;;;;;9.37;4.60;;;51.90;1.00;;;;;;5112731;28;20167;-83
2023/05/29 08:23:57;;;;;;;10.87;4.67;;;51.80;1.00;;;;;;5103186;28;20180;-81
2023/05/29 08:26:23;;;;;;;8.80;4.20;;;51.80;1.00;;;;;;5114853;28;20923;-85
2023/05/29 08:28:48;;;;;;;10.03;4.23;;;51.50;1.00;;;;;;5109763;28;20179;-82
2023/05/29 08:31:14;;;;;;;8.30;3.87;;;50.90;1.00;;;;;;5119749;28;20558;-83
2023/05/29 08:33:39;;;;;;;9.63;3.47;;;50.40;1.00;;;;;;5115584;28;20193;-83
2023/05/29 08:36:05;;;;;;;7.90;3.10;;;50.30;1.00;;;;;;5119462;28;20688;-84
2023/05/29 08:38:31;;;;;;;10.20;3.90;;;50.20;1.00;;;;;;5107619;28;20248;-83
2023/05/29 08:40:59;;;;;;;8.00;3.50;;;50.50;1.00;;;;;;5109914;28;20182;-84
2023/05/29 08:43:30;;;;;;;9.00;3.43;;;50.40;1.00;;;;;;5111912;28;20184;-83
2023/05/29 08:46:00;;;;;;;11.13;4.03;;;50.30;1.00;;;;;;5116261;28;21010;-84
2023/05/29 08:48:28;;;;;;;9.20;2.93;;;50.20;1.00;;;;;;5103395;28;20422;-80
2023/05/29 08:50:55;;;;;;;9.30;3.17;;;50.20;1.00;;;;;;5107673;28;21020;-84
2023/05/29 08:53:22;;;;;;;4.67;3.10;;;49.80;1.00;;;;;;5100050;28;20422;-83
2023/05/29 08:55:50;;;;;;;9.53;4.30;;;48.90;1.00;;;;;;5109188;28;20954;-81
2023/05/29 08:58:16;;;;;;;9.70;3.50;;;48.40;1.00;;;;;;5117314;28;21070;-84
2023/05/29 09:00:43;;;;;;;6.73;3.63;;;48.30;1.00;;;;;;5106954;28;20417;-85
2023/05/29 09:03:09;;;;;;;10.57;3.80;;;48.60;1.00;;;;;;5111600;28;20186;-82
2023/05/29 09:05:39;;;;;;;8.03;3.40;;;48.50;1.00;;;;;;5104181;28;20498;-84
2023/05/29 09:08:05;;;;;;;8.33;3.63;;;48.30;1.00;;;;;;5104815;28;20438;-82
2023/05/29 09:10:31;;;;;;;10.30;3.80;;;48.10;1.00;;;;;;5108948;28;20429;-84
2023/05/29 09:12:59;;;;;;;7.73;3.30;;;47.90;1.00;;;;;;5106848;28;20440;-82
2023/05/29 09:15:24;;;;;;;11.53;3.60;;;47.90;1.00;;;;;;5098450;28;20992;-82
2023/05/29 09:17:52;;;;;;;5.97;2.87;;;48.00;1.00;;;;;;5105126;28;20541;-83
2023/05/29 09:20:18;;;;;;;6.83;2.83;;;48.10;1.00;;;;;;5100015;28;20199;-84
2023/05/29 09:23:03;;;;;;;10.67;3.37;;;47.70;1.00;;;;;;5100126;28;20445;-83
2023/05/29 09:25:31;;;;;;;9.13;3.50;;;47.70;1.00;;;;;;5102593;28;20430;-82
2023/05/29 09:28:07;;;;;;;9.20;3.67;;;47.30;1.00;;;;;;5104633;28;20414;-81
2023/05/29 09:30:41;;;;;;;11.67;3.90;;;47.00;1.90;;;;;;5105586;28;20957;-85
2023/05/29 09:33:08;;;;;;;6.90;3.17;;;46.40;1.00;;;;;;5114301;28;20432;-83
2023/05/29 09:35:39;;;;;;;12.50;4.10;;;46.20;1.00;;;;;;5099262;28;20430;-82
2023/05/29 09:38:07;;;;;;;6.40;3.20;;;46.20;1.00;;;;;;5105771;28;20461;-82
2023/05/29 09:40:34;;;;;;;11.53;4.57;;;46.10;1.00;;;;;;5115895;28;20411;-83
2023/05/29 09:43:10;;;;;;;9.37;3.20;;;46.00;1.00;;;;;;5098716;28;20462;-82
2023/05/29 09:45:38;;;;;;;8.23;3.40;;;45.60;1.00;;;;;;5098476;28;20418;-81
2023/05/29 09:48:04;;;;;;;10.23;3.37;;;45.30;1.00;;;;;;5106589;28;20414;-83
2023/05/29 09:50:30;;;;;;;9.13;3.60;;;44.90;1.00;;;;;;5103197;28;20490;-82
2023/05/29 09:52:57;;;;;;;10.23;4.07;;;44.80;1.00;;;;;;5098685;28;20414;-82
2023/05/29 09:55:28;;;;;;;6.00;3.40;;;44.20;1.00;;;;;;5098558;28;20438;-81
2023/05/29 09:57:54;;;;;;;8.33;3.70;;;44.00;1.00;;;;;;5103539;28;20488;-81
2023/05/29 10:00:21;;;;;;;8.63;3.50;;;43.70;1.00;;;;;;5105270;28;20973;-83
2023/05/29 10:02:48;;;;;;;8.30;3.17;;;43.50;1.00;;;;;;5118215;28;20485;-83
2023/05/29 10:05:15;;;;;;;8.17;3.37;;;43.40;1.00;;;;;;5101260;28;20445;-81
2023/05/29 10:07:48;;;;;;;8.80;3.70;;;43.40;1.00;;;;;;5105932;28;20418;-82
2023/05/29 10:10:14;;;;;;;5.70;3.17;;;43.40;1.00;;;;;;5097813;28;20494;-81
2023/05/29 10:12:44;;;;;;;7.27;3.10;;;43.30;1.00;;;;;;5109326;28;20934;-81
2023/05/29 10:15:16;;;;;;;7.20;3.30;;;43.20;1.00;;;;;;5101600;28;20438;-82
2023/05/29 10:17:57;;;;;;;9.60;3.87;;;43.20;2.30;;;;;;5102693;28;20406;-83
2023/05/29 10:20:23;;;;;;;9.17;3.63;;;43.20;1.00;;;;;;5097743;28;20422;-83
2023/05/29 10:22:51;;;;;;;6.37;3.07;;;43.30;1.00;;;;;;5103656;28;20441;-84
2023/05/29 10:25:20;;;;;;;8.00;3.30;;;43.10;1.00;;;;;;5107705;28;20959;-82
2023/05/29 10:27:45;;;;;;;8.70;3.00;;;42.70;1.00;;;;;;5103099;28;20437;-83
2023/05/29 10:30:11;;;;;;;7.90;3.87;;;42.70;1.00;;;;;;5104832;28;20440;-84
2023/05/29 10:32:59;;;;;;;11.77;3.70;;;42.50;1.00;;;;;;5115304;28;20188;-80
2023/05/29 10:35:40;;;;;;;8.00;3.40;;;42.30;1.00;;;;;;5106269;28;20256;-82
2023/05/29 10:38:11;;;;;;;9.73;3.60;;;42.10;1.00;;;;;;5099599;28;20862;-82
2023/05/29 10:40:36;;;;;;;8.20;4.03;;;41.60;1.00;;;;;;5106852;28;20912;-83
2023/05/29 10:43:02;;;;;;;8.17;3.67;;;41.50;1.00;;;;;;5111687;28;20418;-81
2023/05/29 10:45:35;;;;;;;9.63;3.47;;;41.30;1.00;;;;;;5097057;28;20207;-81
2023/05/29 10:48:08;;;;;;;6.93;3.13;;;40.90;1.00;;;;;;5096355;28;20176;-80
2023/05/29 10:50:38;;;;;;;10.10;3.83;;;40.70;1.00;;;;;;5096791;28;20422;-81
2023/05/29 10:53:06;;;;;;;7.50;3.17;;;40.30;1.00;;;;;;5096175;28;20410;-82
2023/05/29 10:55:35;;;;;;;11.60;3.10;;;40.00;1.00;;;;;;5098885;28;20442;-82
2023/05/29 10:58:19;;;;;;;11.27;3.50;;;39.80;1.00;;;;;;5100545;28;20841;-82
2023/05/29 11:00:46;;;;;;;11.37;3.30;;;39.80;1.00;;;;;;5101449;28;20410;-83
2023/05/29 11:03:15;;;;;;;6.03;3.00;;;39.40;1.00;;;;;;5105523;28;20863;-83
2023/05/29 11:05:59;;;;;;;12.63;3.23;;;38.70;1.00;;;;;;5094705;28;20461;-83
2023/05/29 11:08:48;;;;;;;9.30;3.63;;;38.00;1.00;;;;;;5096819;28;20486;-82
2023/05/29 11:11:14;;;;;;;9.80;3.30;;;37.40;1.00;;;;;;5096645;28;20418;-81
2023/05/29 11:13:44;;;;;;;12.77;4.17;;;36.90;1.00;;;;;;5103817;28;20410;-84
2023/05/29 11:16:28;;;;;;;7.60;3.83;;;36.70;1.00;;;;;;5097714;28;20433;-83
2023/05/29 11:18:54;;;;;;;9.93;3.77;;;36.60;1.00;;;;;;5096338;28;20488;-82
2023/05/29 11:21:45;;;;;;;12.90;3.30;;;36.60;1.00;;;;;;5101085;28;20442;-80
2023/05/29 11:24:19;;;;;;;9.33;3.50;;;36.70;1.00;;;;;;5104778;28;20425;-82
2023/05/29 11:26:45;;;;;;;11.53;3.53;;;36.90;1.00;;;;;;5097250;28;20476;-82
2023/05/29 11:29:12;;;;;;;6.77;3.37;;;36.80;1.00;;;;;;5096697;28;20790;-82
2023/05/29 11:31:40;;;;;;;9.10;3.50;;;36.80;1.00;;;;;;5114301;28;20420;-82
2023/05/29 11:34:12;;;;;;;8.10;3.43;;;36.80;1.00;;;;;;5109438;28;20413;-82
2023/05/29 11:36:37;;;;;;;8.27;3.80;;;36.70;1.00;;;;;;5101273;28;20455;-82
2023/05/29 11:39:03;;;;;;;13.83;3.67;;;36.50;1.00;;;;;;5099262;28;20473;-83
2023/05/29 11:41:29;;;;;;;11.27;3.97;;;36.20;1.00;;;;;;5102113;28;20259;-83
2023/05/29 11:44:01;;;;;;;6.50;3.40;;;36.20;6.30;;;;;;5111472;28;20171;-81
2023/05/29 11:46:27;;;;;;;7.50;3.50;;;36.00;1.00;;;;;;5102848;28;20438;-82
2023/05/29 11:48:53;;;;;;;11.87;3.53;;;35.70;1.00;;;;;;5103951;28;20512;-83
2023/05/29 11:51:19;;;;;;;7.20;3.43;;;35.70;1.00;;;;;;5104193;28;20428;-81
2023/05/29 11:53:47;;;;;;;11.27;3.33;;;35.40;1.00;;;;;;5100844;28;20177;-82
2023/05/29 11:56:13;;;;;;;8.70;3.47;;;35.40;1.00;;;;;;5105197;28;20216;-81
2023/05/29 11:58:39;;;;;;;9.20;3.67;;;35.50;1.00;;;;;;5116657;28;20464;-82
2023/05/29 12:01:07;;;;;;;19.80;3.27;;;35.70;1.00;;;;;;5111333;28;20576;-81
2023/05/29 12:03:43;;;;;;;10.40;3.57;;;35.80;1.00;;;;;;5119190;28;20425;-83
2023/05/29 12:06:10;;;;;;;9.77;3.20;;;35.80;1.00;;;;;;5106175;28;20549;-81
2023/05/29 12:08:36;;;;;;;10.03;3.53;;;36.00;1.00;;;;;;5102324;28;20540;-82
2023/05/29 12:11:02;;;;;;;6.43;3.20;;;36.10;1.00;;;;;;5105591;28;20448;-82
2023/05/29 12:13:28;;;;;;;10.27;3.97;;;36.10;1.00;;;;;;5115303;28;20512;-83
2023/05/29 12:15:59;;;;;;;9.53;2.67;;;36.00;1.20;;;;;;5100496;28;20196;-82
2023/05/29 12:18:26;;;;;;;9.70;3.67;;;35.70;1.10;;;;;;5108842;28;20468;-83
2023/05/29 12:20:57;;;;;;;8.03;2.87;;;35.70;1.30;;;;;;5109383;28;20425;-81
2023/05/29 12:23:24;;;;;;;9.70;3.10;;;35.80;1.90;;;;;;5107360;28;20750;-81
2023/05/29 12:25:51;;;;;;;8.90;3.40;;;35.90;2.10;;;;;;5100850;28;20417;-81
2023/05/29 12:28:18;;;;;;;12.23;3.53;;;35.90;2.40;;;;;;5098717;28;20446;-80
2023/05/29 12:30:49;;;;;;;13.17;3.03;;;35.80;1.90;;;;;;5118035;28;20425;-81
2023/05/29 12:33:32;;;;;;;8.53;3.07;;;35.70;1.70;;;;;;5118871;28;20413;-81
2023/05/29 12:36:09;;;;;;;11.37;4.17;;;35.40;10.80;;;;;;5099444;28;20498;-81
2023/05/29 12:38:51;;;;;;;12.20;3.77;;;35.00;1.00;;;;;;5100229;28;20468;-85
2023/05/29 12:41:33;;;;;;;9.20;4.00;;;34.70;1.00;;;;;;5115566;28;20411;-84
2023/05/29 12:44:02;;;;;;;8.27;3.40;;;34.50;1.00;;;;;;5103235;28;20434;-83
2023/05/29 12:46:35;;;;;;;6.50;3.30;;;34.20;1.00;;;;;;5099679;28;20801;-83
2023/05/29 12:49:21;;;;;;;13.13;3.00;;;34.00;1.00;;;;;;5106270;28;20920;-84